createdAt,value
2019-04-22T00:01:34.344Z,64.23
2019-04-22T00:04:07.985Z,64.42
2019-04-22T00:06:50.042Z,64.61
2019-04-22T00:09:24.159Z,64.80
2019-04-22T00:11:54.620Z,64.75
2019-04-22T00:14:13.138Z,64.94
2019-04-22T00:16:51.490Z,64.86
2019-04-22T00:19:26.879Z,64.68
2019-04-22T00:24:12.182Z,64.65
2019-04-22T00:31:38.167Z,64.15
2019-04-22T00:34:04.716Z,64.03
2019-04-22T00:36:38.142Z,63.94
2019-04-22T00:39:06.611Z,63.86
2019-04-22T00:41:40.570Z,64.08
2019-04-22T00:44:05.314Z,64.03
2019-04-22T00:46:31.832Z,63.93
2019-04-22T00:49:46.479Z,63.91
2019-04-22T00:51:28.629Z,64.08
2019-04-22T00:53:56.100Z,64.33
2019-04-22T00:56:22.012Z,64.15
2019-04-22T00:58:45.322Z,64.14
2019-04-22T01:01:19.129Z,64.20
2019-04-22T01:03:51.020Z,65.09
2019-04-22T01:06:17.357Z,65.72
2019-04-22T01:08:46.862Z,66.05
2019-04-22T01:11:13.474Z,66.31
2019-04-22T01:13:38.633Z,66.76
2019-04-22T01:16:04.517Z,67.95
2019-04-22T01:18:29.410Z,68.21
2019-04-22T01:23:28.239Z,67.31
2019-04-22T01:25:55.000Z,67.02
2019-04-22T01:28:22.643Z,67.33
2019-04-22T01:31:02.873Z,66.52
2019-04-22T01:33:32.467Z,66.79
2019-04-22T01:36:13.882Z,66.39
2019-04-22T01:38:45.352Z,66.38
2019-04-22T01:41:16.100Z,66.32
2019-04-22T01:43:51.835Z,66.19
2019-04-22T01:46:12.668Z,66.37
2019-04-22T01:48:40.654Z,66.19
2019-04-22T01:51:03.400Z,66.26
2019-04-22T01:53:36.571Z,66.26
2019-04-22T01:56:08.350Z,66.04
2019-04-22T01:58:23.347Z,65.97
2019-04-22T02:01:16.061Z,65.86
2019-04-22T02:03:27.956Z,65.90
2019-04-22T02:05:50.935Z,65.91
2019-04-22T02:08:33.107Z,65.95
2019-04-22T02:11:08.946Z,65.77
2019-04-22T02:13:21.868Z,65.67
2019-04-22T02:15:47.870Z,65.79
2019-04-22T02:18:18.072Z,65.82
2019-04-22T02:20:43.155Z,65.82
2019-04-22T02:23:45.767Z,65.79
2019-04-22T02:26:03.957Z,66.29
2019-04-22T02:31:23.201Z,66.44
2019-04-22T02:33:52.640Z,66.63
2019-04-22T02:38:46.638Z,67.20
2019-04-22T02:43:34.257Z,67.53
2019-04-22T02:46:28.537Z,67.85
2019-04-22T02:48:39.987Z,68.27
2019-04-22T02:50:56.337Z,68.42
2019-04-22T02:53:30.139Z,68.67
2019-04-22T02:55:49.000Z,68.83
2019-04-22T02:58:12.685Z,68.38
2019-04-22T03:00:49.139Z,68.75
2019-04-22T03:03:28.064Z,69.00
2019-04-22T03:05:47.298Z,69.25
2019-04-22T03:10:47.360Z,69.23
2019-04-22T03:13:16.119Z,69.08
2019-04-22T03:20:58.478Z,69.43
2019-04-22T03:23:36.539Z,69.66
2019-04-22T03:28:19.413Z,70.14
2019-04-22T03:33:23.491Z,70.18
2019-04-22T03:35:49.675Z,70.00
2019-04-22T03:38:29.055Z,69.93
2019-04-22T03:40:50.445Z,70.37
2019-04-22T03:43:14.092Z,70.13
2019-04-22T03:45:32.167Z,70.15
2019-04-22T03:50:42.440Z,70.52
2019-04-22T03:53:09.423Z,70.25
2019-04-22T03:55:39.035Z,70.16
2019-04-22T03:57:59.241Z,70.10
2019-04-22T04:15:24.880Z,70.22
2019-04-22T04:17:53.843Z,70.26
2019-04-22T04:20:28.728Z,70.38
2019-04-22T04:37:46.902Z,70.86
2019-04-22T04:40:18.867Z,70.73
2019-04-22T04:42:43.644Z,70.63
2019-04-22T04:47:42.848Z,71.02
2019-04-22T04:54:59.042Z,71.70
2019-04-22T04:57:51.511Z,71.71
2019-04-22T05:00:32.690Z,72.25
2019-04-22T05:02:28.730Z,72.77
2019-04-22T05:04:56.177Z,73.13
2019-04-22T05:07:19.190Z,73.85
2019-04-22T05:09:32.428Z,73.94
2019-04-22T05:12:27.530Z,73.93
2019-04-22T05:14:28.788Z,73.10
2019-04-22T05:17:16.450Z,72.60
2019-04-22T05:21:58.163Z,73.88
2019-04-22T05:26:56.704Z,75.06
2019-04-22T05:29:32.873Z,74.82
2019-04-22T05:31:51.774Z,73.87
2019-04-22T05:34:19.370Z,73.44
2019-04-22T05:36:48.381Z,73.26
2019-04-22T05:39:11.151Z,73.12
2019-04-22T05:41:43.497Z,72.89
2019-04-22T05:44:08.457Z,73.44
2019-04-22T05:46:34.400Z,74.17
2019-04-22T05:49:06.045Z,73.96
2019-04-22T05:51:38.509Z,74.03
2019-04-22T05:54:01.438Z,73.85
2019-04-22T05:56:37.132Z,73.56
2019-04-22T06:01:38.878Z,73.03
2019-04-22T06:04:00.366Z,73.28
2019-04-22T06:06:22.730Z,73.51
2019-04-22T06:08:51.030Z,73.79
2019-04-22T06:11:27.064Z,74.79
2019-04-22T06:13:46.850Z,74.35
2019-04-22T06:16:20.561Z,74.11
2019-04-22T06:18:47.569Z,74.28
2019-04-22T06:21:24.363Z,74.37
2019-04-22T06:23:46.623Z,75.25
2019-04-22T06:26:25.295Z,76.55
2019-04-22T06:28:48.440Z,77.90
2019-04-22T06:31:14.046Z,77.88
2019-04-22T06:33:40.566Z,77.95
2019-04-22T06:36:08.826Z,78.37
2019-04-22T06:38:35.862Z,78.84
2019-04-22T06:41:09.330Z,78.77
2019-04-22T06:46:00.782Z,77.60
2019-04-22T06:48:33.088Z,77.50
2019-04-22T06:50:56.863Z,78.35
2019-04-22T06:53:26.669Z,79.14
2019-04-22T06:55:57.944Z,79.22
2019-04-22T06:58:16.689Z,80.20
2019-04-22T07:00:46.234Z,80.05
2019-04-22T07:05:46.390Z,79.76
2019-04-22T07:10:50.866Z,79.27
2019-04-22T07:13:11.490Z,78.38
2019-04-22T07:18:11.574Z,77.83
2019-04-22T07:20:36.425Z,77.67
2019-04-22T07:23:08.277Z,77.72
2019-04-22T07:25:35.659Z,78.42
2019-04-22T07:28:05.417Z,79.49
2019-04-22T07:30:56.056Z,78.94
2019-04-22T07:33:38.092Z,78.33
2019-04-22T07:39:39.227Z,78.99
2019-04-22T07:41:51.547Z,79.05
2019-04-22T07:44:24.186Z,79.59
2019-04-22T07:47:00.943Z,80.11
2019-04-22T07:49:24.038Z,81.13
2019-04-22T07:51:49.817Z,81.88
2019-04-22T07:54:16.290Z,82.16
2019-04-22T07:56:48.662Z,82.40
2019-04-22T07:59:15.193Z,82.14
2019-04-22T08:01:35.547Z,80.92
2019-04-22T08:06:43.794Z,80.48
2019-04-22T08:09:08.005Z,80.80
2019-04-22T08:11:51.282Z,80.38
2019-04-22T08:14:01.558Z,81.05
2019-04-22T08:16:32.269Z,80.22
2019-04-22T08:19:03.065Z,80.19
2019-04-22T08:21:23.745Z,80.16
2019-04-22T08:23:56.846Z,80.62
2019-04-22T08:26:19.523Z,80.55
2019-04-22T08:28:53.466Z,80.38
2019-04-22T08:31:20.543Z,79.93
2019-04-22T08:33:46.634Z,80.23
2019-04-22T08:36:18.059Z,79.64
2019-04-22T08:38:54.239Z,79.96
2019-04-22T08:49:02.259Z,79.97
2019-04-22T08:51:31.009Z,80.49
2019-04-22T08:54:11.887Z,80.59
2019-04-22T08:56:32.229Z,80.00
2019-04-22T08:59:02.060Z,79.47
2019-04-22T09:01:22.677Z,79.52
2019-04-22T09:03:56.689Z,79.34
2019-04-22T09:06:29.947Z,79.29
2019-04-22T09:11:20.326Z,79.56
2019-04-22T09:13:49.850Z,79.38
2019-04-22T09:16:20.805Z,79.23
2019-04-22T09:18:43.622Z,78.89
2019-04-22T09:21:22.275Z,78.72
2019-04-22T09:23:44.120Z,78.44
2019-04-22T09:26:10.253Z,78.39
2019-04-22T09:28:37.659Z,78.63
2019-04-22T09:31:05.777Z,79.01
2019-04-22T09:33:32.206Z,78.86
2019-04-22T09:36:07.825Z,78.73
2019-04-22T09:40:52.511Z,79.25
2019-04-22T09:43:25.836Z,79.44
2019-04-22T09:45:54.433Z,80.09
2019-04-22T09:48:23.398Z,79.90
2019-04-22T09:50:48.170Z,79.48
2019-04-22T09:53:14.815Z,78.84
2019-04-22T09:55:41.672Z,78.87
2019-04-22T09:58:09.369Z,78.95
2019-04-22T10:00:45.853Z,78.75
2019-04-22T10:03:16.502Z,78.71
2019-04-22T10:05:40.708Z,78.46
2019-04-22T10:08:22.234Z,78.33
2019-04-22T10:10:46.890Z,77.85
2019-04-22T10:13:05.577Z,77.54
2019-04-22T10:15:33.404Z,78.21
2019-04-22T10:18:04.147Z,77.87
2019-04-22T10:20:31.625Z,77.90
2019-04-22T10:23:03.733Z,77.73
2019-04-22T10:25:32.983Z,77.52
2019-04-22T10:28:06.902Z,77.95
2019-04-22T10:30:37.155Z,78.19
2019-04-22T10:32:52.239Z,78.83
2019-04-22T10:35:09.282Z,78.58
2019-04-22T10:37:32.257Z,79.06
2019-04-22T10:40:02.901Z,78.71
2019-04-22T10:42:29.268Z,79.02
2019-04-22T10:44:55.730Z,78.44
2019-04-22T10:47:22.327Z,78.25
2019-04-22T10:49:48.701Z,78.98
2019-04-22T10:52:16.389Z,78.48
2019-04-22T10:54:43.263Z,78.52
2019-04-22T10:57:10.855Z,78.34
2019-04-22T10:59:38.251Z,78.16
2019-04-22T11:02:05.552Z,78.94
2019-04-22T11:04:32.247Z,78.74
2019-04-22T11:07:03.116Z,78.16
2019-04-22T11:09:27.035Z,77.70
2019-04-22T11:12:01.742Z,78.81
2019-04-22T11:14:21.281Z,78.82
2019-04-22T11:16:47.758Z,78.84
2019-04-22T11:19:14.032Z,78.58
2019-04-22T11:21:41.311Z,78.15
2019-04-22T11:24:08.512Z,78.17
2019-04-22T11:26:34.798Z,78.13
2019-04-22T11:29:01.508Z,78.35
2019-04-22T11:31:32.338Z,78.07
2019-04-22T11:33:58.898Z,77.03
2019-04-22T11:36:28.647Z,75.84
2019-04-22T11:39:00.156Z,76.17
2019-04-22T11:41:21.587Z,77.19
2019-04-22T11:43:49.436Z,77.70
2019-04-22T11:46:15.875Z,77.57
2019-04-22T11:48:42.408Z,77.79
2019-04-22T11:51:09.729Z,77.38
2019-04-22T11:53:36.604Z,77.67
2019-04-22T11:56:03.018Z,76.89
2019-04-22T11:58:30.654Z,77.66
2019-04-22T12:00:59.196Z,76.91
2019-04-22T12:03:25.486Z,76.17
2019-04-22T12:05:52.232Z,76.65
2019-04-22T12:08:18.484Z,75.67
2019-04-22T12:10:51.601Z,75.23
2019-04-22T12:13:15.675Z,74.30
2019-04-22T12:15:42.808Z,73.86
2019-04-22T12:18:11.082Z,73.59
2019-04-22T12:20:37.325Z,73.54
2019-04-22T12:23:05.122Z,74.00
2019-04-22T12:25:42.303Z,72.84
2019-04-22T12:27:59.464Z,72.72
2019-04-22T12:30:27.772Z,71.75
2019-04-22T12:32:56.203Z,71.06
2019-04-22T12:35:22.511Z,70.20
2019-04-22T12:37:54.038Z,68.78
2019-04-22T12:40:31.365Z,67.57
2019-04-22T12:42:47.077Z,69.20
2019-04-22T12:45:14.071Z,69.00
2019-04-22T12:47:40.351Z,67.46
2019-04-22T12:50:18.679Z,68.12
2019-04-22T12:52:45.707Z,65.78
2019-04-22T12:55:07.991Z,66.02
2019-04-22T12:57:34.714Z,61.86
2019-04-22T13:00:01.913Z,62.67
2019-04-22T13:02:29.308Z,61.97
2019-04-22T13:04:56.272Z,60.65
2019-04-22T13:07:24.072Z,59.03
2019-04-22T13:09:51.553Z,60.48
2019-04-22T13:12:19.339Z,59.93
2019-04-22T13:14:45.633Z,57.15
2019-04-22T13:17:12.278Z,58.00
2019-04-22T13:19:42.493Z,57.14
2019-04-22T13:22:09.283Z,56.94
2019-04-22T13:24:36.148Z,56.46
2019-04-22T13:27:03.299Z,57.05
2019-04-22T13:29:31.126Z,53.17
2019-04-22T13:31:58.559Z,54.75
2019-04-22T13:34:32.932Z,53.02
2019-04-22T13:36:54.543Z,52.11
2019-04-22T13:39:21.196Z,49.96
2019-04-22T13:41:52.419Z,51.23
2019-04-22T13:44:16.645Z,51.90
2019-04-22T13:47:02.106Z,52.00
2019-04-22T13:49:42.779Z,50.32
2019-04-22T13:52:20.660Z,50.83
2019-04-22T13:56:56.835Z,47.75
2019-04-22T13:59:19.886Z,47.94
2019-04-22T14:01:40.919Z,48.70
2019-04-22T14:04:10.280Z,47.67
2019-04-22T14:06:36.720Z,48.74
2019-04-22T14:09:07.422Z,48.91
2019-04-22T14:11:43.358Z,49.68
2019-04-22T14:14:02.842Z,50.45
2019-04-22T14:16:29.329Z,49.20
2019-04-22T14:18:56.000Z,49.24
2019-04-22T14:21:22.935Z,49.26
2019-04-22T14:23:50.890Z,48.77
2019-04-22T14:26:17.617Z,48.17
2019-04-22T14:28:44.069Z,48.07
2019-04-22T14:31:10.673Z,48.81
2019-04-22T14:33:38.383Z,48.91
2019-04-22T14:36:05.014Z,48.72
2019-04-22T14:38:54.309Z,47.42
2019-04-22T14:41:37.748Z,47.83
2019-04-22T14:44:49.645Z,48.32
2019-04-22T14:46:38.867Z,47.91
2019-04-22T14:49:06.438Z,48.99
2019-04-22T14:51:30.430Z,50.30
2019-04-22T14:54:01.360Z,50.52
2019-04-22T14:56:10.660Z,50.57
2019-04-22T14:58:37.340Z,50.27
2019-04-22T15:01:06.856Z,50.37
2019-04-22T15:03:41.998Z,50.89
2019-04-22T15:06:10.419Z,51.69
2019-04-22T15:12:11.116Z,54.34
2019-04-22T15:14:31.346Z,55.55
2019-04-22T15:17:00.779Z,55.73
2019-04-22T15:19:29.747Z,55.50
2019-04-22T15:21:56.643Z,55.60
2019-04-22T15:24:25.152Z,55.74
2019-04-22T15:26:53.512Z,56.46
2019-04-22T15:29:21.110Z,57.86
2019-04-22T15:31:49.178Z,58.62
2019-04-22T15:34:16.381Z,59.11
2019-04-22T15:36:44.333Z,61.05
2019-04-22T15:39:11.248Z,62.03
2019-04-22T15:41:38.740Z,62.57
2019-04-22T15:44:05.992Z,62.90
2019-04-22T15:46:32.367Z,63.21
2019-04-22T15:48:59.936Z,63.19
2019-04-22T15:51:26.814Z,63.25
2019-04-22T15:53:53.956Z,63.62
2019-04-22T15:56:22.910Z,63.19
2019-04-22T15:58:49.282Z,62.81
2019-04-22T16:01:25.183Z,62.91
2019-04-22T16:03:44.838Z,62.78
2019-04-22T16:06:12.241Z,62.73
2019-04-22T16:08:40.995Z,63.38
2019-04-22T16:11:07.138Z,63.33
2019-04-22T16:13:37.700Z,63.02
2019-04-22T16:16:02.657Z,62.79
2019-04-22T16:18:30.554Z,62.35
2019-04-22T16:20:58.650Z,62.54
2019-04-22T16:23:34.002Z,62.09
2019-04-22T16:26:16.014Z,61.85
2019-04-22T16:28:43.018Z,61.83
2019-04-22T16:31:09.550Z,62.37
2019-04-22T16:33:39.459Z,62.88
2019-04-22T16:36:04.772Z,63.07
2019-04-22T16:38:31.116Z,62.83
2019-04-22T16:40:58.736Z,62.56
2019-04-22T16:43:26.538Z,62.43
2019-04-22T16:45:53.809Z,62.43
2019-04-22T16:48:20.120Z,62.66
2019-04-22T16:50:48.630Z,63.11
2019-04-22T16:53:14.394Z,63.25
2019-04-22T16:55:41.059Z,63.51
2019-04-22T16:58:10.526Z,63.45
2019-04-22T17:00:38.403Z,63.42
2019-04-22T17:03:06.815Z,63.57
2019-04-22T17:05:53.738Z,63.55
2019-04-22T17:08:22.205Z,63.97
2019-04-22T17:10:49.512Z,64.35
2019-04-22T17:13:20.939Z,64.20
2019-04-22T17:15:45.163Z,63.93
2019-04-22T17:18:12.807Z,63.54
2019-04-22T17:20:40.344Z,63.90
2019-04-22T17:23:07.443Z,64.21
2019-04-22T17:25:34.305Z,63.97
2019-04-22T17:28:01.387Z,64.23
2019-04-22T17:30:29.096Z,64.17
2019-04-22T17:32:56.827Z,64.05
2019-04-22T17:35:24.213Z,64.11
2019-04-22T17:38:00.298Z,63.90
2019-04-22T17:40:33.019Z,64.03
2019-04-22T17:43:15.439Z,63.89
2019-04-22T17:45:50.850Z,63.85
2019-04-22T17:48:40.663Z,63.91
2019-04-22T17:51:16.155Z,63.69
2019-04-22T17:53:40.178Z,64.05
2019-04-22T17:56:08.707Z,64.30
2019-04-22T17:58:38.185Z,64.68
2019-04-22T18:01:02.769Z,64.64
2019-04-22T18:03:17.577Z,64.51
2019-04-22T18:05:45.877Z,64.78
2019-04-22T18:08:25.587Z,64.88
2019-04-22T18:10:54.249Z,65.06
2019-04-22T18:13:28.255Z,65.23
2019-04-22T18:15:53.332Z,65.53
2019-04-22T18:18:28.152Z,65.68
2019-04-22T18:20:39.433Z,65.63
2019-04-22T18:23:05.672Z,65.65
2019-04-22T18:25:48.500Z,65.94
2019-04-22T18:28:17.294Z,66.22
2019-04-22T18:30:34.484Z,66.47
2019-04-22T18:33:07.462Z,66.64
2019-04-22T18:35:33.945Z,66.92
2019-04-22T18:38:11.043Z,66.66
2019-04-22T18:40:30.942Z,66.41
2019-04-22T18:43:06.275Z,66.20
2019-04-22T18:45:39.756Z,66.85
2019-04-22T18:47:55.478Z,67.09
2019-04-22T18:50:36.966Z,67.07
2019-04-22T18:53:23.415Z,66.90
2019-04-22T18:55:39.051Z,67.55
2019-04-22T18:58:11.676Z,68.25
2019-04-22T19:00:37.917Z,68.07
2019-04-22T19:03:11.670Z,68.14
2019-04-22T19:05:54.281Z,68.15
2019-04-22T19:10:58.965Z,68.98
2019-04-22T19:14:03.352Z,69.22
2019-04-22T19:19:10.156Z,68.51
2019-04-22T19:21:19.367Z,68.23
2019-04-22T19:23:49.173Z,68.10
2019-04-22T19:26:23.278Z,68.81
2019-04-22T19:28:49.760Z,69.12
2019-04-22T19:31:19.146Z,70.41
2019-04-22T19:33:49.648Z,71.14
2019-04-22T19:36:14.702Z,71.50
2019-04-22T19:38:32.239Z,71.58
2019-04-22T19:43:46.968Z,71.84
2019-04-22T19:46:17.027Z,72.19
2019-04-22T19:48:45.648Z,72.42
2019-04-22T19:51:15.849Z,72.46
2019-04-22T19:53:43.859Z,72.42
2019-04-22T19:56:11.325Z,72.37
2019-04-22T19:58:37.365Z,72.34
2019-04-22T20:06:59.048Z,72.26
2019-04-22T20:09:29.961Z,72.27
2019-04-22T20:12:10.610Z,72.56
2019-04-22T20:14:43.696Z,72.33
2019-04-22T20:17:02.200Z,72.34
2019-04-22T20:22:06.183Z,72.10
2019-04-22T20:24:19.028Z,71.85
2019-04-22T20:27:03.062Z,71.51
2019-04-22T20:29:30.722Z,71.29
2019-04-22T20:35:06.012Z,71.13
2019-04-22T20:39:52.884Z,70.57
2019-04-22T20:42:45.152Z,70.56
2019-04-22T20:44:52.119Z,70.87
2019-04-22T20:47:14.989Z,70.99
2019-04-22T20:49:47.462Z,71.38
2019-04-22T20:54:45.001Z,71.16
2019-04-22T20:57:07.450Z,70.72
2019-04-22T20:59:40.234Z,70.45
2019-04-22T21:02:01.917Z,70.03
2019-04-22T21:04:27.829Z,69.64
2019-04-22T21:07:03.839Z,69.66
2019-04-22T21:09:35.455Z,69.83
2019-04-22T21:12:00.079Z,69.81
2019-04-22T21:14:24.540Z,69.46
2019-04-22T21:16:56.282Z,69.39
2019-04-22T21:19:38.139Z,69.37
2019-04-22T21:21:59.751Z,69.26
2019-04-22T21:24:20.379Z,69.45
2019-04-22T21:26:51.701Z,69.84
2019-04-22T21:29:12.996Z,69.65
2019-04-22T21:31:46.074Z,69.61
2019-04-22T21:34:10.283Z,69.66
2019-04-22T21:36:43.021Z,69.70
2019-04-22T21:39:10.983Z,69.86
2019-04-22T21:41:36.744Z,69.92
2019-04-22T21:44:05.490Z,69.98
2019-04-22T21:46:35.702Z,70.26
2019-04-22T21:49:06.718Z,70.29
2019-04-22T21:51:41.557Z,70.41
2019-04-22T21:54:06.910Z,70.61
2019-04-22T21:56:52.756Z,70.78
2019-04-22T21:59:01.635Z,70.89
2019-04-22T22:04:15.290Z,71.32
2019-04-22T22:06:33.273Z,71.38
2019-04-22T22:09:07.151Z,71.38
2019-04-22T22:11:35.167Z,71.54
2019-04-22T22:14:10.313Z,71.67
2019-04-22T22:16:33.544Z,72.08
2019-04-22T22:19:06.699Z,72.44
2019-04-22T22:21:42.008Z,72.26
2019-04-22T22:24:05.397Z,72.25
2019-04-22T22:26:26.348Z,72.26
2019-04-22T22:29:02.090Z,72.95
2019-04-22T22:31:33.275Z,73.53
2019-04-22T22:33:51.454Z,73.36
2019-04-22T22:36:17.974Z,73.71
2019-04-22T22:38:42.606Z,73.67
2019-04-22T22:40:56.033Z,73.53
2019-04-22T22:43:29.753Z,73.60
2019-04-22T22:46:03.310Z,73.34
2019-04-22T22:48:51.386Z,73.27
2019-04-22T22:51:03.358Z,73.32
2019-04-22T22:53:40.141Z,73.86
2019-04-22T22:56:05.770Z,73.51
2019-04-22T22:58:36.413Z,74.03
2019-04-22T23:00:58.187Z,74.60
2019-04-22T23:03:48.299Z,74.40
2019-04-22T23:05:59.146Z,74.39
2019-04-22T23:08:27.315Z,74.94
2019-04-22T23:11:00.983Z,74.44
2019-04-22T23:13:28.620Z,74.14
2019-04-22T23:15:46.598Z,73.79
2019-04-22T23:17:59.451Z,73.57
2019-04-22T23:20:31.402Z,73.79
2019-04-22T23:23:17.131Z,73.90
2019-04-22T23:25:40.110Z,73.96
2019-04-22T23:28:12.608Z,74.22
2019-04-22T23:30:38.180Z,74.45
2019-04-22T23:33:18.587Z,74.48
2019-04-22T23:36:01.413Z,74.39
2019-04-22T23:38:37.581Z,74.72
2019-04-22T23:41:05.353Z,74.22
2019-04-22T23:43:42.714Z,74.58
2019-04-22T23:46:02.472Z,74.24
2019-04-22T23:48:27.268Z,74.34
2019-04-22T23:51:03.389Z,74.38
2019-04-22T23:56:04.712Z,74.46
2019-04-22T23:58:48.129Z,74.37
